createdAt,value
2018-03-26T00:01:29.784Z,9.10
2018-03-26T00:03:57.265Z,9.10
2018-03-26T00:06:25.507Z,9.10
2018-03-26T00:08:52.979Z,9.00
2018-03-26T00:11:20.492Z,9.10
2018-03-26T00:13:47.953Z,9.10
2018-03-26T00:16:15.466Z,9.10
2018-03-26T00:18:42.946Z,9.10
2018-03-26T00:21:11.183Z,9.20
2018-03-26T00:23:38.674Z,9.20
2018-03-26T00:26:06.906Z,9.20
2018-03-26T00:28:34.391Z,9.10
2018-03-26T00:31:01.956Z,9.20
2018-03-26T00:33:29.517Z,9.10
2018-03-26T00:35:57.733Z,9.00
2018-03-26T00:38:25.218Z,8.90
2018-03-26T00:40:52.746Z,9.00
2018-03-26T00:43:20.211Z,8.90
2018-03-26T00:45:47.668Z,8.90
2018-03-26T00:48:15.143Z,8.90
2018-03-26T00:50:42.729Z,8.90
2018-03-26T00:53:10.192Z,9.00
2018-03-26T00:55:38.429Z,9.00
2018-03-26T00:58:05.917Z,8.90
2018-03-26T01:00:34.206Z,9.00
2018-03-26T01:03:02.528Z,9.00
2018-03-26T01:05:30.000Z,9.00
2018-03-26T01:07:57.478Z,9.00
2018-03-26T01:10:24.988Z,9.00
2018-03-26T01:12:52.449Z,9.10
2018-03-26T01:15:19.937Z,9.20
2018-03-26T01:17:47.425Z,9.20
2018-03-26T01:20:15.684Z,9.10
2018-03-26T01:22:43.251Z,9.10
2018-03-26T01:25:10.708Z,9.10
2018-03-26T01:27:38.936Z,9.20
2018-03-26T01:30:06.448Z,9.10
2018-03-26T01:32:34.688Z,9.20
2018-03-26T01:35:02.146Z,9.20
2018-03-26T01:37:29.645Z,9.30
2018-03-26T01:39:57.885Z,9.20
2018-03-26T01:42:25.370Z,9.10
2018-03-26T01:44:53.607Z,9.20
2018-03-26T01:47:21.068Z,9.10
2018-03-26T01:49:48.594Z,9.20
2018-03-26T01:52:16.084Z,9.20
2018-03-26T01:54:43.550Z,9.30
2018-03-26T01:57:11.010Z,9.30
2018-03-26T01:59:38.556Z,9.30
2018-03-26T02:02:06.024Z,9.30
2018-03-26T02:04:33.519Z,9.30
2018-03-26T02:07:01.048Z,9.30
2018-03-26T02:09:28.622Z,9.30
2018-03-26T02:11:56.890Z,9.10
2018-03-26T02:14:25.165Z,9.00
2018-03-26T02:16:53.408Z,9.00
2018-03-26T02:19:20.882Z,9.00
2018-03-26T02:21:48.346Z,9.10
2018-03-26T02:24:15.916Z,9.10
2018-03-26T02:26:44.161Z,9.00
2018-03-26T02:29:11.673Z,8.90
2018-03-26T02:31:39.293Z,9.00
2018-03-26T02:36:40.593Z,9.00
2018-03-26T02:39:08.110Z,8.90
2018-03-26T02:41:35.619Z,8.90
2018-03-26T02:44:03.100Z,8.80
2018-03-26T02:46:30.587Z,8.80
2018-03-26T02:48:58.133Z,8.80
2018-03-26T02:51:25.606Z,8.70
2018-03-26T02:53:53.092Z,8.80
2018-03-26T02:56:20.604Z,8.90
2018-03-26T02:58:48.107Z,8.90
2018-03-26T03:01:16.333Z,8.80
2018-03-26T03:03:43.859Z,8.80
2018-03-26T03:06:11.340Z,8.70
2018-03-26T03:08:38.796Z,8.70
2018-03-26T03:11:06.328Z,8.60
2018-03-26T03:13:33.808Z,8.50
2018-03-26T03:16:01.293Z,8.50
2018-03-26T03:18:28.803Z,8.60
2018-03-26T03:20:56.304Z,8.60
2018-03-26T03:23:24.591Z,8.70
2018-03-26T03:25:52.129Z,8.70
2018-03-26T03:28:19.612Z,8.70
2018-03-26T03:30:47.863Z,8.70
2018-03-26T03:33:15.342Z,8.60
2018-03-26T03:35:43.614Z,8.70
2018-03-26T03:38:11.068Z,8.60
2018-03-26T03:40:39.551Z,8.70
2018-03-26T03:43:07.094Z,8.60
2018-03-26T03:45:34.572Z,8.60
2018-03-26T03:48:02.794Z,8.60
2018-03-26T03:50:30.287Z,8.50
2018-03-26T03:52:57.857Z,8.60
2018-03-26T03:55:25.514Z,8.70
2018-03-26T03:57:53.764Z,8.70
2018-03-26T04:00:21.318Z,8.70
2018-03-26T04:02:48.791Z,8.80
2018-03-26T04:05:16.284Z,8.70
2018-03-26T04:07:44.508Z,8.70
2018-03-26T04:10:12.011Z,8.70
2018-03-26T04:12:40.286Z,8.70
2018-03-26T04:15:08.501Z,8.60
2018-03-26T04:17:35.971Z,8.50
2018-03-26T04:20:03.428Z,8.60
2018-03-26T04:22:30.897Z,8.50
2018-03-26T04:24:58.470Z,8.40
2018-03-26T04:27:25.949Z,8.40
2018-03-26T04:29:54.176Z,8.40
2018-03-26T04:32:21.669Z,8.30
2018-03-26T04:34:49.904Z,8.40
2018-03-26T04:37:17.492Z,8.40
2018-03-26T04:39:45.053Z,8.50
2018-03-26T04:42:12.532Z,8.40
2018-03-26T04:44:40.837Z,8.40
2018-03-26T04:47:08.336Z,8.40
2018-03-26T04:49:35.892Z,8.50
2018-03-26T04:52:03.370Z,8.60
2018-03-26T04:54:31.616Z,8.70
2018-03-26T04:56:59.085Z,8.70
2018-03-26T04:59:26.682Z,8.70
2018-03-26T05:01:54.145Z,8.60
2018-03-26T05:04:21.679Z,8.20
2018-03-26T05:06:49.955Z,8.00
2018-03-26T05:09:18.214Z,7.90
2018-03-26T05:11:45.672Z,7.90
2018-03-26T05:14:13.166Z,7.90
2018-03-26T05:16:40.630Z,7.90
2018-03-26T05:19:08.093Z,8.00
2018-03-26T05:21:35.570Z,8.10
2018-03-26T05:24:03.049Z,8.30
2018-03-26T05:26:30.520Z,8.30
2018-03-26T05:28:58.004Z,8.30
2018-03-26T05:31:25.534Z,8.20
2018-03-26T05:33:53.770Z,8.10
2018-03-26T05:36:21.228Z,8.00
2018-03-26T05:38:48.693Z,8.10
2018-03-26T05:41:16.269Z,8.20
2018-03-26T05:43:43.852Z,8.20
2018-03-26T05:46:12.113Z,8.10
2018-03-26T05:48:39.657Z,8.00
2018-03-26T05:51:07.235Z,8.00
2018-03-26T05:53:35.479Z,7.80
2018-03-26T05:56:02.944Z,7.80
2018-03-26T05:58:30.527Z,7.80
2018-03-26T06:00:57.995Z,7.80
2018-03-26T06:03:26.220Z,7.80
2018-03-26T06:05:53.706Z,7.80
2018-03-26T06:08:21.167Z,7.80
2018-03-26T06:10:48.621Z,7.80
2018-03-26T06:13:16.189Z,7.80
2018-03-26T06:15:43.651Z,8.00
2018-03-26T06:18:11.906Z,7.90
2018-03-26T06:20:39.393Z,7.80
2018-03-26T06:23:07.646Z,8.00
2018-03-26T06:25:35.120Z,7.90
2018-03-26T06:28:03.344Z,7.90
2018-03-26T06:30:30.819Z,7.80
2018-03-26T06:32:58.310Z,7.80
2018-03-26T06:35:26.557Z,7.70
2018-03-26T06:41:02.606Z,7.60
2018-03-26T06:43:30.070Z,7.60
2018-03-26T06:45:57.550Z,7.70
2018-03-26T06:48:25.132Z,7.80
2018-03-26T06:50:53.395Z,8.00
2018-03-26T06:53:20.860Z,7.90
2018-03-26T06:55:49.084Z,8.20
2018-03-26T06:58:16.540Z,8.10
2018-03-26T07:00:44.025Z,8.20
2018-03-26T07:03:11.502Z,8.30
2018-03-26T07:05:39.102Z,8.40
2018-03-26T07:08:06.768Z,8.30
2018-03-26T07:10:34.247Z,8.20
2018-03-26T07:13:01.712Z,8.20
2018-03-26T07:15:29.236Z,8.10
2018-03-26T07:17:56.714Z,8.20
2018-03-26T07:20:24.215Z,8.30
2018-03-26T07:22:52.456Z,8.20
2018-03-26T07:25:19.927Z,8.10
2018-03-26T07:27:47.422Z,8.30
2018-03-26T07:30:14.913Z,8.30
2018-03-26T07:32:42.487Z,8.30
2018-03-26T07:35:09.970Z,8.40
2018-03-26T07:37:38.223Z,8.40
2018-03-26T07:40:05.701Z,8.30
2018-03-26T07:42:33.958Z,8.50
2018-03-26T07:45:01.442Z,8.50
2018-03-26T07:47:29.710Z,8.70
2018-03-26T07:49:57.268Z,8.60
2018-03-26T07:52:24.737Z,8.80
2018-03-26T07:54:52.985Z,8.70
2018-03-26T07:57:20.453Z,8.60
2018-03-26T07:59:48.715Z,8.70
2018-03-26T08:02:16.412Z,8.70
2018-03-26T08:04:43.883Z,8.70
2018-03-26T08:07:11.429Z,8.60
2018-03-26T08:09:39.788Z,8.70
2018-03-26T08:12:08.019Z,8.80
2018-03-26T08:14:35.498Z,8.70
2018-03-26T08:17:03.059Z,8.90
2018-03-26T08:19:31.618Z,8.90
2018-03-26T08:21:59.088Z,8.80
2018-03-26T08:24:26.674Z,9.00
2018-03-26T08:26:54.150Z,9.00
2018-03-26T08:29:22.409Z,9.10
2018-03-26T08:31:49.893Z,9.00
2018-03-26T08:34:23.189Z,9.00
2018-03-26T08:36:50.665Z,9.00
2018-03-26T08:39:18.124Z,8.90
2018-03-26T08:41:45.605Z,8.80
2018-03-26T08:44:13.093Z,8.90
2018-03-26T08:46:41.461Z,8.60
2018-03-26T08:49:09.020Z,8.60
2018-03-26T08:51:36.496Z,8.70
2018-03-26T08:54:04.713Z,8.80
2018-03-26T08:56:32.179Z,8.80
2018-03-26T08:58:59.640Z,8.80
2018-03-26T09:01:27.146Z,8.90
2018-03-26T09:03:55.395Z,9.20
2018-03-26T09:06:22.853Z,9.20
2018-03-26T09:08:50.359Z,9.30
2018-03-26T09:11:17.825Z,9.30
2018-03-26T09:13:45.313Z,9.30
2018-03-26T09:16:12.786Z,9.30
2018-03-26T09:18:41.071Z,9.40
2018-03-26T09:21:08.531Z,9.30
2018-03-26T09:23:36.787Z,9.50
2018-03-26T09:26:04.472Z,9.40
2018-03-26T09:28:32.045Z,9.40
2018-03-26T09:30:59.513Z,9.20
2018-03-26T09:33:26.987Z,9.20
2018-03-26T09:35:54.458Z,9.10
2018-03-26T09:38:21.943Z,9.20
2018-03-26T09:40:50.210Z,9.00
2018-03-26T09:43:17.774Z,9.00
2018-03-26T09:45:45.235Z,9.10
2018-03-26T09:48:13.511Z,9.40
2018-03-26T09:50:41.065Z,9.40
2018-03-26T09:53:08.534Z,9.60
2018-03-26T09:55:36.779Z,9.80
2018-03-26T09:58:04.253Z,9.70
2018-03-26T10:00:52.439Z,9.80
2018-03-26T10:03:19.909Z,9.90
2018-03-26T10:05:47.398Z,9.90
2018-03-26T10:08:14.982Z,9.90
2018-03-26T10:10:43.261Z,9.70
2018-03-26T10:13:11.673Z,9.70
2018-03-26T10:15:39.147Z,9.70
2018-03-26T10:18:06.618Z,9.70
2018-03-26T10:20:34.113Z,9.90
2018-03-26T10:23:02.386Z,10.10
2018-03-26T10:25:30.634Z,10.10
2018-03-26T10:27:58.878Z,10.10
2018-03-26T10:30:26.357Z,10.10
2018-03-26T10:32:53.838Z,10.10
2018-03-26T10:35:21.402Z,10.20
2018-03-26T10:37:49.673Z,10.00
2018-03-26T10:40:17.232Z,10.00
2018-03-26T10:42:44.713Z,10.00
2018-03-26T10:45:12.248Z,10.00
2018-03-26T10:47:40.516Z,9.90
2018-03-26T10:50:08.035Z,9.90
2018-03-26T10:52:35.506Z,9.90
2018-03-26T10:55:07.908Z,9.70
2018-03-26T10:57:36.148Z,9.60
2018-03-26T11:00:03.613Z,9.60
2018-03-26T11:02:31.095Z,9.70
2018-03-26T11:04:59.333Z,9.50
2018-03-26T11:07:26.929Z,9.50
2018-03-26T11:09:54.393Z,9.40
2018-03-26T11:12:21.895Z,9.40
2018-03-26T11:14:49.364Z,9.30
2018-03-26T11:17:16.902Z,9.20
2018-03-26T11:19:44.414Z,9.30
2018-03-26T11:22:11.917Z,9.20
2018-03-26T11:24:39.435Z,9.20
2018-03-26T11:27:07.692Z,9.30
2018-03-26T11:29:35.253Z,9.30
2018-03-26T11:32:02.826Z,9.50
2018-03-26T11:34:30.315Z,9.40
2018-03-26T11:36:57.845Z,9.50
2018-03-26T11:39:25.333Z,9.50
2018-03-26T11:41:52.793Z,9.40
2018-03-26T11:44:20.255Z,9.20
2018-03-26T11:46:47.737Z,9.10
2018-03-26T11:49:15.320Z,9.00
2018-03-26T11:51:43.580Z,8.90
2018-03-26T11:54:11.032Z,8.80
2018-03-26T11:56:38.526Z,8.80
2018-03-26T11:59:06.798Z,8.70
2018-03-26T12:01:35.049Z,8.80
2018-03-26T12:04:02.511Z,8.70
2018-03-26T12:06:30.074Z,8.80
2018-03-26T12:08:57.604Z,8.80
2018-03-26T12:11:25.791Z,8.80
2018-03-26T12:13:53.275Z,8.70
2018-03-26T12:16:21.516Z,8.80
2018-03-26T12:18:48.998Z,8.80
2018-03-26T12:21:16.479Z,8.70
2018-03-26T12:23:56.631Z,8.60
2018-03-26T12:26:24.873Z,8.60
2018-03-26T12:29:04.304Z,8.60
2018-03-26T12:31:31.771Z,8.60
2018-03-26T12:34:11.187Z,8.60
2018-03-26T12:36:38.685Z,8.70
2018-03-26T12:39:06.930Z,8.80
2018-03-26T12:41:34.398Z,8.70
2018-03-26T12:44:01.862Z,8.80
2018-03-26T12:46:36.246Z,8.80
2018-03-26T12:49:03.715Z,8.70
2018-03-26T12:51:43.291Z,8.60
2018-03-26T12:54:11.524Z,8.70
2018-03-26T12:56:39.023Z,8.60
2018-03-26T12:59:07.260Z,8.70
2018-03-26T13:01:46.776Z,8.60
2018-03-26T13:04:14.406Z,8.70
2018-03-26T13:06:42.679Z,9.00
2018-03-26T13:09:10.923Z,9.20
2018-03-26T13:11:38.383Z,9.20
2018-03-26T13:14:05.943Z,9.30
2018-03-26T13:16:34.178Z,9.50
2018-03-26T13:19:01.659Z,9.40
2018-03-26T13:21:29.134Z,9.60
2018-03-26T13:23:56.647Z,9.70
2018-03-26T13:26:24.114Z,9.80
2018-03-26T13:28:51.586Z,9.90
2018-03-26T13:31:19.060Z,9.80
2018-03-26T13:33:46.566Z,9.60
2018-03-26T13:36:14.084Z,9.40
2018-03-26T13:38:41.564Z,9.40
2018-03-26T13:41:09.796Z,9.40
2018-03-26T13:43:37.256Z,9.30
2018-03-26T13:46:04.726Z,9.40
2018-03-26T13:48:32.301Z,9.50
2018-03-26T13:51:00.574Z,9.30
2018-03-26T13:53:28.814Z,9.30
2018-03-26T13:55:56.294Z,9.30
2018-03-26T13:58:23.826Z,9.40
2018-03-26T14:00:51.312Z,9.30
2018-03-26T14:03:18.793Z,9.30
2018-03-26T14:05:47.030Z,9.30
2018-03-26T14:08:26.380Z,9.20
2018-03-26T14:11:05.832Z,9.40
2018-03-26T14:16:45.760Z,10.10
2018-03-26T14:19:13.253Z,10.60
2018-03-26T14:21:41.508Z,11.70
2018-03-26T14:24:09.086Z,11.60
2018-03-26T14:26:37.320Z,11.80
2018-03-26T14:29:04.794Z,11.80
2018-03-26T14:31:32.290Z,12.00
2018-03-26T14:33:59.794Z,12.10
2018-03-26T14:36:27.279Z,12.10
2018-03-26T14:38:54.766Z,12.10
2018-03-26T14:41:22.245Z,12.30
2018-03-26T14:43:49.738Z,12.10
2018-03-26T14:46:17.225Z,12.00
2018-03-26T14:48:45.474Z,11.90
2018-03-26T14:51:12.953Z,11.80
2018-03-26T14:53:41.318Z,11.90
2018-03-26T14:56:08.784Z,11.80
2018-03-26T14:58:37.050Z,11.80
2018-03-26T15:01:05.300Z,11.90
2018-03-26T15:03:32.806Z,11.90
2018-03-26T15:06:00.279Z,11.90
2018-03-26T15:08:27.877Z,11.90
2018-03-26T15:10:55.375Z,11.80
2018-03-26T15:13:23.612Z,11.30
2018-03-26T15:15:51.087Z,11.30
2018-03-26T15:18:18.574Z,11.20
2018-03-26T15:20:46.105Z,11.60
2018-03-26T15:23:14.368Z,13.60
2018-03-26T15:25:41.855Z,13.60
2018-03-26T15:28:09.393Z,14.40
2018-03-26T15:30:37.654Z,14.70
2018-03-26T15:33:05.220Z,14.60
2018-03-26T15:35:32.708Z,15.10
2018-03-26T15:38:00.961Z,16.00
2018-03-26T15:40:28.440Z,15.90
2018-03-26T15:42:56.678Z,15.30
2018-03-26T15:45:24.259Z,15.20
2018-03-26T15:47:51.739Z,15.50
2018-03-26T15:50:18.722Z,15.70
2018-03-26T15:52:46.219Z,15.00
2018-03-26T15:55:14.467Z,13.40
2018-03-26T15:57:41.950Z,13.30
2018-03-26T16:00:09.436Z,13.20
2018-03-26T16:05:41.809Z,12.10
2018-03-26T16:08:10.052Z,11.50
2018-03-26T16:10:37.683Z,11.40
2018-03-26T16:13:05.173Z,11.50
2018-03-26T16:15:32.637Z,12.40
2018-03-26T16:18:00.198Z,14.00
2018-03-26T16:20:28.473Z,15.80
2018-03-26T16:22:56.020Z,15.80
2018-03-26T16:25:23.486Z,16.90
2018-03-26T16:27:50.947Z,17.70
2018-03-26T16:30:18.423Z,17.80
2018-03-26T16:32:46.685Z,15.90
2018-03-26T16:35:14.143Z,15.80
2018-03-26T16:37:42.792Z,14.00
2018-03-26T16:40:10.286Z,13.90
2018-03-26T16:42:44.398Z,13.10
2018-03-26T16:45:12.643Z,12.50
2018-03-26T16:47:40.115Z,12.40
2018-03-26T16:50:07.717Z,11.90
2018-03-26T16:52:35.234Z,11.40
2018-03-26T16:55:02.720Z,11.00
2018-03-26T16:57:30.260Z,10.80
2018-03-26T16:59:57.746Z,10.40
2018-03-26T17:02:25.322Z,10.20
2018-03-26T17:04:52.814Z,9.90
2018-03-26T17:07:20.273Z,9.70
2018-03-26T17:09:47.724Z,9.60
2018-03-26T17:12:15.184Z,9.40
2018-03-26T17:14:42.655Z,9.20
2018-03-26T17:17:10.125Z,9.00
2018-03-26T17:19:38.392Z,8.90
2018-03-26T17:22:05.987Z,8.80
2018-03-26T17:24:34.212Z,8.80
2018-03-26T17:27:01.685Z,8.70
2018-03-26T17:29:29.232Z,8.80
2018-03-26T17:31:56.716Z,8.80
2018-03-26T17:34:25.023Z,8.60
2018-03-26T17:36:52.491Z,8.60
2018-03-26T17:39:19.987Z,8.60
2018-03-26T17:41:47.460Z,8.60
2018-03-26T17:44:15.709Z,8.50
2018-03-26T17:46:43.207Z,8.40
2018-03-26T17:49:10.725Z,8.40
2018-03-26T17:51:39.695Z,8.10
2018-03-26T17:54:07.179Z,8.10
2018-03-26T17:56:34.662Z,8.10
2018-03-26T17:59:02.907Z,8.20
2018-03-26T18:01:31.130Z,8.20
2018-03-26T18:03:58.640Z,8.10
2018-03-26T18:06:26.198Z,8.10
2018-03-26T18:08:53.689Z,8.00
2018-03-26T18:11:21.934Z,8.00
2018-03-26T18:13:49.441Z,7.90
2018-03-26T18:16:16.896Z,7.90
2018-03-26T18:18:44.353Z,7.80
2018-03-26T18:21:11.930Z,7.70
2018-03-26T18:23:39.325Z,7.70
2018-03-26T18:26:06.876Z,7.70
2018-03-26T18:28:34.329Z,7.70
2018-03-26T18:31:01.891Z,7.60
2018-03-26T18:33:29.458Z,7.60
2018-03-26T18:35:56.923Z,7.60
2018-03-26T18:38:25.185Z,7.50
2018-03-26T18:40:52.650Z,7.40
2018-03-26T18:43:20.112Z,7.50
2018-03-26T18:45:48.358Z,7.40
2018-03-26T18:48:15.845Z,7.30
2018-03-26T18:50:44.069Z,7.10
2018-03-26T18:53:11.554Z,7.10
2018-03-26T18:55:39.022Z,7.00
2018-03-26T18:58:06.503Z,7.00
2018-03-26T19:00:34.767Z,6.90
2018-03-26T19:03:03.026Z,6.90
2018-03-26T19:05:30.477Z,6.90
2018-03-26T19:07:58.042Z,6.90
2018-03-26T19:10:25.592Z,6.90
2018-03-26T19:12:53.165Z,6.90
2018-03-26T19:15:20.653Z,6.90
2018-03-26T19:17:48.227Z,6.80
2018-03-26T19:20:15.747Z,6.60
2018-03-26T19:22:44.012Z,6.40
2018-03-26T19:25:11.574Z,6.40
2018-03-26T19:27:39.127Z,6.40
2018-03-26T19:30:06.599Z,6.40
2018-03-26T19:32:34.850Z,6.30
2018-03-26T19:35:02.308Z,6.30
2018-03-26T19:37:29.763Z,6.30
2018-03-26T19:39:57.380Z,6.40
2018-03-26T19:42:24.791Z,6.40
2018-03-26T19:44:52.344Z,6.40
2018-03-26T19:47:19.905Z,6.40
2018-03-26T19:49:47.364Z,6.50
2018-03-26T19:52:14.862Z,6.40
2018-03-26T19:54:42.333Z,6.30
2018-03-26T19:57:09.831Z,6.20
2018-03-26T19:59:37.329Z,6.20
2018-03-26T20:02:04.784Z,6.20
2018-03-26T20:04:32.244Z,6.20
2018-03-26T20:06:59.727Z,6.20
2018-03-26T20:09:27.188Z,6.20
2018-03-26T20:11:54.677Z,6.10
2018-03-26T20:14:22.249Z,6.10
2018-03-26T20:16:49.788Z,6.10
2018-03-26T20:19:18.075Z,6.00
2018-03-26T20:21:45.637Z,5.90
2018-03-26T20:24:13.118Z,5.80
2018-03-26T20:26:40.688Z,5.80
2018-03-26T20:29:08.175Z,5.70
2018-03-26T20:31:35.644Z,5.70
2018-03-26T20:34:03.225Z,5.70
2018-03-26T20:36:31.478Z,5.70
2018-03-26T20:38:58.979Z,5.70
2018-03-26T20:41:27.246Z,5.80
2018-03-26T20:43:55.584Z,5.90
2018-03-26T20:46:23.112Z,5.80
2018-03-26T20:48:50.613Z,5.80
2018-03-26T20:51:18.196Z,5.80
2018-03-26T20:53:46.453Z,5.80
2018-03-26T20:56:13.922Z,5.80
2018-03-26T20:58:42.148Z,5.80
2018-03-26T21:01:09.616Z,5.70
2018-03-26T21:03:37.116Z,5.80
2018-03-26T21:06:05.364Z,5.80
2018-03-26T21:08:32.828Z,5.70
2018-03-26T21:11:00.310Z,5.80
2018-03-26T21:13:28.581Z,5.70
2018-03-26T21:15:56.859Z,5.70
2018-03-26T21:18:25.119Z,5.70
2018-03-26T21:20:52.614Z,5.60
2018-03-26T21:23:20.228Z,5.70
2018-03-26T21:25:48.500Z,5.80
2018-03-26T21:28:16.068Z,5.70
2018-03-26T21:30:43.578Z,5.70
2018-03-26T21:33:11.051Z,5.70
2018-03-26T21:35:38.516Z,5.60
2018-03-26T21:38:06.042Z,5.50
2018-03-26T21:40:33.488Z,5.50
2018-03-26T21:43:00.958Z,5.50
2018-03-26T21:45:28.474Z,5.40
2018-03-26T21:47:56.020Z,5.50
2018-03-26T21:50:23.487Z,5.50
2018-03-26T21:52:51.724Z,5.50
2018-03-26T21:55:19.211Z,5.50
2018-03-26T21:57:46.693Z,5.50
2018-03-26T22:00:18.529Z,5.50
2018-03-26T22:02:46.005Z,5.50
2018-03-26T22:05:14.266Z,5.50
2018-03-26T22:07:42.526Z,5.50
2018-03-26T22:10:10.113Z,5.40
2018-03-26T22:12:38.347Z,5.50
2018-03-26T22:15:05.810Z,5.40
2018-03-26T22:17:33.326Z,5.40
2018-03-26T22:20:00.798Z,5.40
2018-03-26T22:22:28.292Z,5.30
2018-03-26T22:24:55.767Z,5.40
2018-03-26T22:27:23.996Z,5.50
2018-03-26T22:29:51.496Z,5.40
2018-03-26T22:32:18.953Z,5.60
2018-03-26T22:34:47.223Z,5.70
2018-03-26T22:37:14.678Z,5.70
2018-03-26T22:39:42.242Z,5.80
2018-03-26T22:42:09.704Z,5.80
2018-03-26T22:44:38.060Z,5.80
2018-03-26T22:47:05.529Z,5.80
2018-03-26T22:49:32.997Z,5.90
2018-03-26T22:52:01.311Z,5.80
2018-03-26T22:54:28.766Z,5.70
2018-03-26T22:56:56.254Z,5.80
2018-03-26T22:59:23.733Z,5.80
2018-03-26T23:01:51.285Z,5.80
2018-03-26T23:04:19.518Z,5.80
2018-03-26T23:06:47.028Z,5.80
2018-03-26T23:09:14.489Z,5.70
2018-03-26T23:11:42.763Z,5.60
2018-03-26T23:14:10.233Z,5.50
2018-03-26T23:16:38.488Z,5.60
2018-03-26T23:19:06.132Z,5.60
2018-03-26T23:21:33.596Z,5.70
2018-03-26T23:24:02.565Z,5.60
2018-03-26T23:26:30.061Z,5.60
2018-03-26T23:28:57.519Z,5.60
2018-03-26T23:31:25.017Z,5.60
2018-03-26T23:33:52.616Z,5.50
2018-03-26T23:36:20.197Z,5.40
2018-03-26T23:38:48.440Z,5.40
2018-03-26T23:41:15.919Z,5.40
2018-03-26T23:43:44.323Z,5.50
2018-03-26T23:46:11.886Z,5.40
2018-03-26T23:48:39.430Z,5.50
2018-03-26T23:51:07.661Z,5.50
2018-03-26T23:53:35.161Z,5.40
2018-03-26T23:56:03.376Z,5.40
2018-03-26T23:58:30.889Z,5.30
